Etusivu
METAR-TAF:

METAR-TAF

Lentoasemat :

Tomahawk Regional Airport

Tomahawk, Wisconsin, Yhdysvallat

Leveyspiiri: 45-28-08N, Pituuspiiri: 089-48-20W, korkeus merenpinnasta: 453 m

Tämänhetkinen sää

Tämä raportti tehtiin 16 minuuttia sitten, kello 10.15 UTC
Tuuli 3 kn lännestä
Lämpötila -22°C
Kosteus 84%
Ilmanpaine 1030 hPa
Näkyvyys: 16.1 km
selkeää

METAR: KTKV 191015Z AUTO 27003KT 10SM CLR M22/M24 A3043 RMK AO2 T12161243 PWINO

Aika: 04:31 (10:31 UTC)


TAF: puuttuu

Säähavainnot ja -ennusteet yli 4000 lentoasemalta (METAR- ja TAF-raportit).

Käytössä olevat sääasemat on merkitty karttaan keltaisilla ja punaisilla pisteillä.

Aseta hiiri pisteen päälle nähdäksesi sääaseman nimen.

Klikkaa sitten nähdäksesi säähavainnot ja -ennusteet.

Kartan vaihtaminen: klikkaa mustalla rastilla varustettuja vihreitä pisteitä, niin voit zoomata sisään; viivalla varustettua vihreää pistettä, niin voit zoomata ulos tai vihreitä nuolia, niin pääset viereisille kartoille.


METAR-TAF: